sensor_id;sensor_type;location;lat;lon;timestamp;P1;durP1;ratioP1;P2;durP2;ratioP2
23678;SDS011;12016;51.668;6.874;2022-12-18T00:02:22;49.67;;;32.85;;
23678;SDS011;12016;51.668;6.874;2022-12-18T00:08:24;53.03;;;33.83;;
23678;SDS011;12016;51.668;6.874;2022-12-18T00:14:25;50.00;;;34.40;;
23678;SDS011;12016;51.668;6.874;2022-12-18T00:20:27;48.85;;;32.80;;
23678;SDS011;12016;51.668;6.874;2022-12-18T00:26:31;52.45;;;34.97;;
23678;SDS011;12016;51.668;6.874;2022-12-18T00:32:35;49.70;;;34.60;;
23678;SDS011;12016;51.668;6.874;2022-12-18T00:38:37;56.88;;;35.25;;
23678;SDS011;12016;51.668;6.874;2022-12-18T00:44:39;55.13;;;36.55;;
23678;SDS011;12016;51.668;6.874;2022-12-18T00:50:41;58.78;;;36.13;;
23678;SDS011;12016;51.668;6.874;2022-12-18T00:56:43;57.30;;;36.63;;
23678;SDS011;12016;51.668;6.874;2022-12-18T01:02:49;57.75;;;37.72;;
23678;SDS011;12016;51.668;6.874;2022-12-18T01:08:51;52.63;;;34.92;;
23678;SDS011;12016;51.668;6.874;2022-12-18T01:14:53;62.10;;;38.45;;
23678;SDS011;12016;51.668;6.874;2022-12-18T01:20:55;62.42;;;39.47;;
23678;SDS011;12016;51.668;6.874;2022-12-18T01:26:57;64.38;;;41.10;;
23678;SDS011;12016;51.668;6.874;2022-12-18T01:32:59;63.28;;;40.38;;
23678;SDS011;12016;51.668;6.874;2022-12-18T01:39:02;64.88;;;40.25;;
23678;SDS011;12016;51.668;6.874;2022-12-18T01:51:23;57.78;;;37.70;;
23678;SDS011;12016;51.668;6.874;2022-12-18T01:57:26;63.70;;;40.97;;
23678;SDS011;12016;51.668;6.874;2022-12-18T02:03:29;61.05;;;39.25;;
23678;SDS011;12016;51.668;6.874;2022-12-18T02:09:32;57.25;;;36.25;;
23678;SDS011;12016;51.668;6.874;2022-12-18T02:16:08;58.78;;;37.53;;
23678;SDS011;12016;51.668;6.874;2022-12-18T02:28:26;57.15;;;36.58;;
23678;SDS011;12016;51.668;6.874;2022-12-18T02:34:34;61.35;;;37.50;;
23678;SDS011;12016;51.668;6.874;2022-12-18T02:40:44;55.83;;;35.40;;
23678;SDS011;12016;51.668;6.874;2022-12-18T02:46:51;53.47;;;35.60;;
23678;SDS011;12016;51.668;6.874;2022-12-18T02:59:25;56.95;;;36.13;;
23678;SDS011;12016;51.668;6.874;2022-12-18T03:12:09;60.28;;;37.17;;
23678;SDS011;12016;51.668;6.874;2022-12-18T03:18:30;53.80;;;36.05;;
23678;SDS011;12016;51.668;6.874;2022-12-18T03:24:38;59.72;;;38.03;;
23678;SDS011;12016;51.668;6.874;2022-12-18T03:30:42;57.33;;;36.85;;
23678;SDS011;12016;51.668;6.874;2022-12-18T03:36:46;55.92;;;37.30;;
23678;SDS011;12016;51.668;6.874;2022-12-18T03:42:49;59.08;;;37.35;;
23678;SDS011;12016;51.668;6.874;2022-12-18T03:49:05;60.15;;;36.75;;
23678;SDS011;12016;51.668;6.874;2022-12-18T03:55:14;56.80;;;36.72;;
23678;SDS011;12016;51.668;6.874;2022-12-18T04:01:22;56.33;;;37.42;;
23678;SDS011;12016;51.668;6.874;2022-12-18T04:07:30;58.53;;;37.83;;
23678;SDS011;12016;51.668;6.874;2022-12-18T04:13:35;57.78;;;35.83;;
23678;SDS011;12016;51.668;6.874;2022-12-18T04:19:42;59.05;;;38.67;;
23678;SDS011;12016;51.668;6.874;2022-12-18T04:25:45;59.83;;;39.47;;
23678;SDS011;12016;51.668;6.874;2022-12-18T04:31:56;56.28;;;37.83;;
23678;SDS011;12016;51.668;6.874;2022-12-18T04:38:00;56.90;;;37.65;;
23678;SDS011;12016;51.668;6.874;2022-12-18T04:44:01;59.25;;;38.72;;
23678;SDS011;12016;51.668;6.874;2022-12-18T04:50:03;58.88;;;38.03;;
23678;SDS011;12016;51.668;6.874;2022-12-18T04:56:07;56.75;;;37.25;;
23678;SDS011;12016;51.668;6.874;2022-12-18T05:02:10;52.70;;;36.03;;
23678;SDS011;12016;51.668;6.874;2022-12-18T05:08:12;53.50;;;35.47;;
23678;SDS011;12016;51.668;6.874;2022-12-18T05:14:14;52.08;;;35.53;;
23678;SDS011;12016;51.668;6.874;2022-12-18T05:20:16;50.47;;;35.13;;
23678;SDS011;12016;51.668;6.874;2022-12-18T05:26:19;54.53;;;36.65;;
23678;SDS011;12016;51.668;6.874;2022-12-18T05:32:21;51.92;;;35.10;;
23678;SDS011;12016;51.668;6.874;2022-12-18T05:38:23;50.28;;;34.03;;
23678;SDS011;12016;51.668;6.874;2022-12-18T05:44:26;47.08;;;33.03;;
23678;SDS011;12016;51.668;6.874;2022-12-18T05:50:28;50.72;;;34.03;;
23678;SDS011;12016;51.668;6.874;2022-12-18T05:56:35;50.67;;;34.33;;
23678;SDS011;12016;51.668;6.874;2022-12-18T06:02:36;49.80;;;34.10;;
23678;SDS011;12016;51.668;6.874;2022-12-18T06:08:38;51.08;;;35.38;;
23678;SDS011;12016;51.668;6.874;2022-12-18T06:14:43;48.38;;;33.53;;
23678;SDS011;12016;51.668;6.874;2022-12-18T06:20:44;52.60;;;34.72;;
23678;SDS011;12016;51.668;6.874;2022-12-18T06:26:46;52.83;;;35.08;;
23678;SDS011;12016;51.668;6.874;2022-12-18T06:32:49;49.17;;;34.42;;
23678;SDS011;12016;51.668;6.874;2022-12-18T06:38:56;50.53;;;34.28;;
23678;SDS011;12016;51.668;6.874;2022-12-18T06:45:03;49.92;;;34.92;;
23678;SDS011;12016;51.668;6.874;2022-12-18T06:51:07;50.53;;;35.03;;
23678;SDS011;12016;51.668;6.874;2022-12-18T06:57:09;48.65;;;32.90;;
23678;SDS011;12016;51.668;6.874;2022-12-18T07:03:11;52.08;;;35.10;;
23678;SDS011;12016;51.668;6.874;2022-12-18T07:09:13;54.53;;;35.80;;
23678;SDS011;12016;51.668;6.874;2022-12-18T07:15:15;48.22;;;33.60;;
23678;SDS011;12016;51.668;6.874;2022-12-18T07:21:18;48.55;;;32.30;;
23678;SDS011;12016;51.668;6.874;2022-12-18T07:27:21;43.28;;;30.98;;
23678;SDS011;12016;51.668;6.874;2022-12-18T07:33:23;44.22;;;30.50;;
23678;SDS011;12016;51.668;6.874;2022-12-18T07:39:25;41.10;;;28.73;;
23678;SDS011;12016;51.668;6.874;2022-12-18T07:45:27;41.63;;;29.88;;
23678;SDS011;12016;51.668;6.874;2022-12-18T07:51:28;40.80;;;29.70;;
23678;SDS011;12016;51.668;6.874;2022-12-18T07:57:30;35.20;;;25.92;;
23678;SDS011;12016;51.668;6.874;2022-12-18T08:03:49;31.42;;;24.23;;
23678;SDS011;12016;51.668;6.874;2022-12-18T08:09:51;37.22;;;26.10;;
23678;SDS011;12016;51.668;6.874;2022-12-18T08:16:00;35.85;;;27.15;;
23678;SDS011;12016;51.668;6.874;2022-12-18T08:22:07;35.65;;;26.17;;
23678;SDS011;12016;51.668;6.874;2022-12-18T08:28:09;32.90;;;24.65;;
23678;SDS011;12016;51.668;6.874;2022-12-18T08:34:11;31.38;;;23.88;;
23678;SDS011;12016;51.668;6.874;2022-12-18T08:40:13;34.05;;;24.98;;
23678;SDS011;12016;51.668;6.874;2022-12-18T08:46:15;36.70;;;25.83;;
23678;SDS011;12016;51.668;6.874;2022-12-18T08:52:17;31.15;;;24.05;;
23678;SDS011;12016;51.668;6.874;2022-12-18T08:58:19;31.02;;;23.75;;
23678;SDS011;12016;51.668;6.874;2022-12-18T09:04:21;28.80;;;22.40;;
23678;SDS011;12016;51.668;6.874;2022-12-18T09:10:24;28.52;;;22.80;;
23678;SDS011;12016;51.668;6.874;2022-12-18T09:16:26;29.75;;;21.92;;
23678;SDS011;12016;51.668;6.874;2022-12-18T09:22:32;27.52;;;20.75;;
23678;SDS011;12016;51.668;6.874;2022-12-18T09:28:34;30.38;;;23.02;;
23678;SDS011;12016;51.668;6.874;2022-12-18T09:34:36;29.45;;;20.60;;
23678;SDS011;12016;51.668;6.874;2022-12-18T09:40:42;28.48;;;21.52;;
23678;SDS011;12016;51.668;6.874;2022-12-18T09:47:04;27.83;;;19.73;;
23678;SDS011;12016;51.668;6.874;2022-12-18T09:53:22;27.10;;;21.20;;
23678;SDS011;12016;51.668;6.874;2022-12-18T09:59:33;25.63;;;20.20;;
23678;SDS011;12016;51.668;6.874;2022-12-18T10:12:23;24.92;;;19.65;;
23678;SDS011;12016;51.668;6.874;2022-12-18T10:25:15;23.45;;;18.05;;
23678;SDS011;12016;51.668;6.874;2022-12-18T10:31:23;24.23;;;18.58;;
23678;SDS011;12016;51.668;6.874;2022-12-18T10:37:27;23.30;;;17.92;;
23678;SDS011;12016;51.668;6.874;2022-12-18T10:43:34;20.85;;;18.17;;
23678;SDS011;12016;51.668;6.874;2022-12-18T10:49:37;22.58;;;18.30;;
23678;SDS011;12016;51.668;6.874;2022-12-18T10:55:52;22.33;;;16.92;;
23678;SDS011;12016;51.668;6.874;2022-12-18T11:01:56;21.20;;;17.02;;
23678;SDS011;12016;51.668;6.874;2022-12-18T11:07:59;20.60;;;16.30;;
23678;SDS011;12016;51.668;6.874;2022-12-18T11:20:19;19.52;;;15.50;;
23678;SDS011;12016;51.668;6.874;2022-12-18T11:26:35;19.38;;;15.75;;
23678;SDS011;12016;51.668;6.874;2022-12-18T11:32:38;19.17;;;15.77;;
23678;SDS011;12016;51.668;6.874;2022-12-18T11:38:42;18.75;;;15.95;;
23678;SDS011;12016;51.668;6.874;2022-12-18T11:51:17;20.67;;;17.30;;
23678;SDS011;12016;51.668;6.874;2022-12-18T12:03:51;21.55;;;17.88;;
23678;SDS011;12016;51.668;6.874;2022-12-18T12:16:29;19.05;;;16.90;;
23678;SDS011;12016;51.668;6.874;2022-12-18T12:22:45;20.15;;;16.55;;
23678;SDS011;12016;51.668;6.874;2022-12-18T12:29:13;22.08;;;18.05;;
23678;SDS011;12016;51.668;6.874;2022-12-18T12:41:54;22.38;;;18.33;;
23678;SDS011;12016;51.668;6.874;2022-12-18T12:49:00;24.02;;;19.85;;
23678;SDS011;12016;51.668;6.874;2022-12-18T12:54:55;25.30;;;18.70;;
23678;SDS011;12016;51.668;6.874;2022-12-18T13:01:04;23.73;;;18.80;;
23678;SDS011;12016;51.668;6.874;2022-12-18T13:13:16;28.50;;;22.13;;
23678;SDS011;12016;51.668;6.874;2022-12-18T13:19:22;26.20;;;22.42;;
23678;SDS011;12016;51.668;6.874;2022-12-18T13:37:42;26.33;;;21.17;;
23678;SDS011;12016;51.668;6.874;2022-12-18T13:43:49;23.67;;;19.95;;
23678;SDS011;12016;51.668;6.874;2022-12-18T13:49:52;22.42;;;18.33;;
23678;SDS011;12016;51.668;6.874;2022-12-18T13:55:54;24.58;;;19.52;;
23678;SDS011;12016;51.668;6.874;2022-12-18T14:01:57;19.92;;;17.55;;
23678;SDS011;12016;51.668;6.874;2022-12-18T14:08:03;19.65;;;16.40;;
23678;SDS011;12016;51.668;6.874;2022-12-18T14:14:07;23.35;;;19.50;;
23678;SDS011;12016;51.668;6.874;2022-12-18T14:20:13;22.05;;;18.15;;
23678;SDS011;12016;51.668;6.874;2022-12-18T14:26:21;23.30;;;18.85;;
23678;SDS011;12016;51.668;6.874;2022-12-18T14:32:30;28.27;;;22.27;;
23678;SDS011;12016;51.668;6.874;2022-12-18T14:44:35;22.60;;;19.48;;
23678;SDS011;12016;51.668;6.874;2022-12-18T14:50:45;25.73;;;22.17;;
23678;SDS011;12016;51.668;6.874;2022-12-18T14:57:24;24.85;;;21.45;;
23678;SDS011;12016;51.668;6.874;2022-12-18T15:03:29;26.30;;;21.35;;
23678;SDS011;12016;51.668;6.874;2022-12-18T15:09:31;30.55;;;25.50;;
23678;SDS011;12016;51.668;6.874;2022-12-18T15:21:37;28.77;;;23.60;;
23678;SDS011;12016;51.668;6.874;2022-12-18T15:27:45;30.05;;;25.40;;
23678;SDS011;12016;51.668;6.874;2022-12-18T15:39:55;30.00;;;25.60;;
23678;SDS011;12016;51.668;6.874;2022-12-18T15:45:57;27.92;;;22.65;;
23678;SDS011;12016;51.668;6.874;2022-12-18T15:51:59;28.33;;;22.67;;
23678;SDS011;12016;51.668;6.874;2022-12-18T15:58:03;28.90;;;23.50;;
23678;SDS011;12016;51.668;6.874;2022-12-18T16:04:06;28.73;;;23.25;;
23678;SDS011;12016;51.668;6.874;2022-12-18T16:10:08;30.27;;;22.88;;
23678;SDS011;12016;51.668;6.874;2022-12-18T16:16:10;37.30;;;29.70;;
23678;SDS011;12016;51.668;6.874;2022-12-18T16:22:17;27.92;;;22.33;;
23678;SDS011;12016;51.668;6.874;2022-12-18T16:28:23;41.33;;;33.50;;
23678;SDS011;12016;51.668;6.874;2022-12-18T16:34:27;37.83;;;29.20;;
23678;SDS011;12016;51.668;6.874;2022-12-18T16:40:35;37.80;;;28.88;;
23678;SDS011;12016;51.668;6.874;2022-12-18T16:46:59;77.82;;;59.67;;
23678;SDS011;12016;51.668;6.874;2022-12-18T16:53:03;32.85;;;25.30;;
23678;SDS011;12016;51.668;6.874;2022-12-18T16:59:04;28.33;;;21.92;;
23678;SDS011;12016;51.668;6.874;2022-12-18T17:05:06;21.85;;;17.10;;
23678;SDS011;12016;51.668;6.874;2022-12-18T17:11:08;21.42;;;17.27;;
23678;SDS011;12016;51.668;6.874;2022-12-18T17:17:10;22.27;;;16.60;;
23678;SDS011;12016;51.668;6.874;2022-12-18T17:23:27;23.75;;;18.48;;
23678;SDS011;12016;51.668;6.874;2022-12-18T17:29:30;23.17;;;18.13;;
23678;SDS011;12016;51.668;6.874;2022-12-18T17:35:32;22.70;;;17.67;;
23678;SDS011;12016;51.668;6.874;2022-12-18T17:41:33;23.88;;;18.95;;
23678;SDS011;12016;51.668;6.874;2022-12-18T17:47:36;23.67;;;19.02;;
23678;SDS011;12016;51.668;6.874;2022-12-18T17:53:37;24.55;;;18.73;;
23678;SDS011;12016;51.668;6.874;2022-12-18T17:59:39;27.05;;;20.73;;
23678;SDS011;12016;51.668;6.874;2022-12-18T18:05:41;25.45;;;20.15;;
23678;SDS011;12016;51.668;6.874;2022-12-18T18:11:43;30.02;;;20.05;;
23678;SDS011;12016;51.668;6.874;2022-12-18T18:18:04;24.65;;;19.38;;
23678;SDS011;12016;51.668;6.874;2022-12-18T18:24:06;26.10;;;20.50;;
23678;SDS011;12016;51.668;6.874;2022-12-18T18:30:10;25.02;;;20.02;;
23678;SDS011;12016;51.668;6.874;2022-12-18T18:36:11;28.48;;;20.67;;
23678;SDS011;12016;51.668;6.874;2022-12-18T18:42:13;27.17;;;20.98;;
23678;SDS011;12016;51.668;6.874;2022-12-18T18:48:15;26.98;;;20.83;;
23678;SDS011;12016;51.668;6.874;2022-12-18T18:54:17;27.10;;;20.42;;
23678;SDS011;12016;51.668;6.874;2022-12-18T19:00:19;28.58;;;22.15;;
23678;SDS011;12016;51.668;6.874;2022-12-18T19:06:22;27.75;;;21.58;;
23678;SDS011;12016;51.668;6.874;2022-12-18T19:12:26;28.33;;;21.30;;
23678;SDS011;12016;51.668;6.874;2022-12-18T19:18:47;29.00;;;22.10;;
23678;SDS011;12016;51.668;6.874;2022-12-18T19:24:51;29.02;;;22.38;;
23678;SDS011;12016;51.668;6.874;2022-12-18T19:30:52;29.17;;;22.02;;
23678;SDS011;12016;51.668;6.874;2022-12-18T19:37:00;29.88;;;22.40;;
23678;SDS011;12016;51.668;6.874;2022-12-18T19:43:01;28.92;;;21.73;;
23678;SDS011;12016;51.668;6.874;2022-12-18T19:49:03;29.20;;;22.48;;
23678;SDS011;12016;51.668;6.874;2022-12-18T19:55:06;28.30;;;21.10;;
23678;SDS011;12016;51.668;6.874;2022-12-18T20:01:10;31.67;;;22.75;;
23678;SDS011;12016;51.668;6.874;2022-12-18T20:07:14;30.00;;;21.70;;
23678;SDS011;12016;51.668;6.874;2022-12-18T20:13:16;29.98;;;22.02;;
23678;SDS011;12016;51.668;6.874;2022-12-18T20:19:18;29.38;;;22.17;;
23678;SDS011;12016;51.668;6.874;2022-12-18T20:25:20;31.52;;;23.42;;
23678;SDS011;12016;51.668;6.874;2022-12-18T20:31:22;30.40;;;22.95;;
23678;SDS011;12016;51.668;6.874;2022-12-18T20:37:24;29.23;;;22.58;;
23678;SDS011;12016;51.668;6.874;2022-12-18T20:43:26;28.25;;;21.25;;
23678;SDS011;12016;51.668;6.874;2022-12-18T20:49:28;30.60;;;22.48;;
23678;SDS011;12016;51.668;6.874;2022-12-18T20:55:31;30.73;;;21.95;;
23678;SDS011;12016;51.668;6.874;2022-12-18T21:01:33;29.77;;;22.13;;
23678;SDS011;12016;51.668;6.874;2022-12-18T21:07:35;32.67;;;23.00;;
23678;SDS011;12016;51.668;6.874;2022-12-18T21:13:36;31.27;;;22.58;;
23678;SDS011;12016;51.668;6.874;2022-12-18T21:19:39;29.65;;;22.02;;
23678;SDS011;12016;51.668;6.874;2022-12-18T21:25:41;30.02;;;22.13;;
23678;SDS011;12016;51.668;6.874;2022-12-18T21:31:51;28.95;;;21.83;;
23678;SDS011;12016;51.668;6.874;2022-12-18T21:37:54;29.52;;;22.60;;
23678;SDS011;12016;51.668;6.874;2022-12-18T21:43:55;30.77;;;21.77;;
23678;SDS011;12016;51.668;6.874;2022-12-18T21:50:06;30.37;;;23.17;;
23678;SDS011;12016;51.668;6.874;2022-12-18T21:56:08;30.52;;;22.30;;
23678;SDS011;12016;51.668;6.874;2022-12-18T22:08:11;30.38;;;22.17;;
23678;SDS011;12016;51.668;6.874;2022-12-18T22:14:14;32.03;;;23.33;;
23678;SDS011;12016;51.668;6.874;2022-12-18T22:20:19;31.15;;;22.98;;
23678;SDS011;12016;51.668;6.874;2022-12-18T22:26:22;29.98;;;22.02;;
23678;SDS011;12016;51.668;6.874;2022-12-18T22:32:25;29.88;;;21.60;;
23678;SDS011;12016;51.668;6.874;2022-12-18T22:38:28;30.35;;;22.80;;
23678;SDS011;12016;51.668;6.874;2022-12-18T22:44:29;30.20;;;22.52;;
23678;SDS011;12016;51.668;6.874;2022-12-18T22:50:31;32.10;;;22.35;;
23678;SDS011;12016;51.668;6.874;2022-12-18T22:56:34;30.33;;;21.73;;
23678;SDS011;12016;51.668;6.874;2022-12-18T23:02:36;30.55;;;22.10;;
23678;SDS011;12016;51.668;6.874;2022-12-18T23:08:39;31.50;;;22.60;;
23678;SDS011;12016;51.668;6.874;2022-12-18T23:14:41;31.15;;;22.27;;
23678;SDS011;12016;51.668;6.874;2022-12-18T23:20:43;28.55;;;20.80;;
23678;SDS011;12016;51.668;6.874;2022-12-18T23:26:46;29.42;;;22.45;;
23678;SDS011;12016;51.668;6.874;2022-12-18T23:32:48;28.10;;;21.27;;
23678;SDS011;12016;51.668;6.874;2022-12-18T23:38:51;29.35;;;21.38;;
23678;SDS011;12016;51.668;6.874;2022-12-18T23:44:57;30.05;;;22.08;;
23678;SDS011;12016;51.668;6.874;2022-12-18T23:51:03;29.20;;;21.42;;
23678;SDS011;12016;51.668;6.874;2022-12-18T23:57:08;29.77;;;22.10;;
